Time;durP1;ratioP1;P1;durP2;ratioP2;P2;SDS_P1;SDS_P2;PMS_P1;PMS_P2;Temp;Humidity;BMP_temperature;BMP_pressure;BME280_temperature;BME280_humidity;BME280_pressure;Samples;Min_cycle;Max_cycle;Signal;HPM_P1;HPM_P2
2023/05/11 00:00:08;;;;;;;21.10;12.45;;;13.40;99.90;;;;;;4952268;28;20098;-71
2023/05/11 00:02:34;;;;;;;21.63;12.57;;;13.40;99.90;;;;;;4951173;29;20030;-71
2023/05/11 00:05:01;;;;;;;21.85;12.65;;;13.30;99.90;;;;;;4950657;28;20063;-70
2023/05/11 00:07:27;;;;;;;22.90;13.25;;;13.30;99.90;;;;;;4952050;29;20140;-71
2023/05/11 00:09:53;;;;;;;23.20;13.27;;;13.30;99.90;;;;;;4951460;28;20039;-70
2023/05/11 00:12:19;;;;;;;26.20;14.95;;;13.40;99.90;;;;;;4944139;29;20035;-71
2023/05/11 00:14:45;;;;;;;25.85;14.07;;;13.40;99.90;;;;;;4946956;29;20107;-70
2023/05/11 00:17:10;;;;;;;26.23;14.50;;;13.40;99.90;;;;;;4953951;28;20114;-70
2023/05/11 00:19:36;;;;;;;26.52;14.65;;;13.40;99.90;;;;;;4951404;28;20031;-70
2023/05/11 00:22:02;;;;;;;25.55;13.88;;;13.40;99.90;;;;;;4942609;29;20060;-71
2023/05/11 00:24:28;;;;;;;25.40;13.93;;;13.40;99.90;;;;;;4941652;29;20028;-71
2023/05/11 00:26:54;;;;;;;29.23;15.73;;;13.40;99.90;;;;;;4947913;29;20467;-72
2023/05/11 00:29:20;;;;;;;29.00;14.82;;;13.40;99.90;;;;;;4945012;28;20023;-71
2023/05/11 00:31:48;;;;;;;26.05;14.35;;;13.40;99.90;;;;;;4943951;29;20471;-70
2023/05/11 00:34:15;;;;;;;25.55;14.00;;;13.40;99.90;;;;;;4946601;29;20683;-71
2023/05/11 00:36:41;;;;;;;25.55;14.35;;;13.40;99.90;;;;;;4951422;29;20664;-70
2023/05/11 00:39:11;;;;;;;27.48;14.90;;;13.40;99.90;;;;;;4942718;28;20114;-70
2023/05/11 00:41:37;;;;;;;29.25;14.65;;;13.40;99.90;;;;;;4946282;28;20482;-70
2023/05/11 00:44:03;;;;;;;24.60;13.77;;;13.40;99.90;;;;;;4944686;28;20036;-71
2023/05/11 00:46:29;;;;;;;29.00;15.77;;;13.40;99.90;;;;;;4950997;28;20031;-71
2023/05/11 00:48:55;;;;;;;26.42;14.55;;;13.40;99.90;;;;;;4941547;29;20023;-70
2023/05/11 00:51:20;;;;;;;28.45;15.68;;;13.40;99.90;;;;;;4943345;29;20471;-70
2023/05/11 00:53:48;;;;;;;27.58;14.98;;;13.40;99.90;;;;;;4951339;29;20026;-71
2023/05/11 00:56:14;;;;;;;30.63;16.17;;;13.40;99.90;;;;;;4939840;29;20067;-71
2023/05/11 00:58:40;;;;;;;31.58;16.35;;;13.40;99.90;;;;;;4948443;29;20046;-71
2023/05/11 01:01:06;;;;;;;31.13;16.52;;;13.40;99.90;;;;;;4944429;28;20032;-70
2023/05/11 01:03:34;;;;;;;29.13;16.48;;;13.40;99.90;;;;;;4940030;29;20050;-71
2023/05/11 01:06:17;;;;;;;30.73;16.92;;;13.40;99.90;;;;;;4952631;29;20023;-70
2023/05/11 01:08:55;;;;;;;30.13;16.10;;;13.40;99.90;;;;;;4942712;29;20116;-70
2023/05/11 01:11:35;;;;;;;31.98;16.65;;;13.40;99.90;;;;;;4945010;29;20032;-70
2023/05/11 01:14:33;;;;;;;30.38;16.75;;;13.40;99.90;;;;;;4946507;29;20497;-71
2023/05/11 01:17:07;;;;;;;30.55;16.95;;;13.40;99.90;;;;;;4947019;29;20375;-71
2023/05/11 01:19:42;;;;;;;29.23;16.77;;;13.40;99.90;;;;;;4953911;29;20101;-70
2023/05/11 01:22:19;;;;;;;29.87;17.67;;;13.40;99.90;;;;;;4954323;28;20391;-71
2023/05/11 01:24:59;;;;;;;32.47;18.63;;;13.40;99.90;;;;;;4951122;29;20035;-70
2023/05/11 01:27:40;;;;;;;31.35;18.00;;;13.40;99.90;;;;;;4956323;28;20173;-70
2023/05/11 01:30:17;;;;;;;31.30;18.23;;;13.40;99.90;;;;;;4953543;29;20047;-71
2023/05/11 01:32:43;;;;;;;35.08;18.55;;;13.40;99.90;;;;;;4944100;29;20024;-70
2023/05/11 01:35:22;;;;;;;34.25;19.15;;;13.40;99.90;;;;;;4951949;28;20122;-70
2023/05/11 01:37:55;;;;;;;31.67;18.17;;;13.40;99.90;;;;;;4948997;29;20475;-70
2023/05/11 01:40:24;;;;;;;32.63;18.38;;;13.40;99.90;;;;;;4955229;29;20055;-70
2023/05/11 01:42:58;;;;;;;34.28;18.92;;;13.40;99.90;;;;;;4951099;28;20427;-70
2023/05/11 01:45:25;;;;;;;31.30;18.00;;;13.40;99.90;;;;;;4952549;29;20042;-70
2023/05/11 01:47:53;;;;;;;36.90;19.73;;;13.40;99.90;;;;;;4954431;29;20031;-70
2023/05/11 01:50:21;;;;;;;36.00;19.13;;;13.40;99.90;;;;;;4956263;28;20469;-70
2023/05/11 01:52:49;;;;;;;34.78;19.35;;;13.40;99.90;;;;;;4955644;28;20019;-70
2023/05/11 01:55:18;;;;;;;34.65;18.23;;;13.40;99.90;;;;;;4955964;28;20022;-71
2023/05/11 01:57:44;;;;;;;34.47;17.88;;;13.40;99.90;;;;;;4953668;28;20113;-71
2023/05/11 02:00:10;;;;;;;37.65;19.70;;;13.40;99.90;;;;;;4954845;29;20147;-70
2023/05/11 02:02:37;;;;;;;35.28;19.10;;;13.40;99.90;;;;;;4954976;29;20050;-71
2023/05/11 02:05:05;;;;;;;37.83;19.50;;;13.40;99.90;;;;;;4954517;28;20039;-71
2023/05/11 02:07:31;;;;;;;41.08;20.42;;;13.40;99.90;;;;;;4960584;28;20755;-71
2023/05/11 02:09:59;;;;;;;35.40;20.17;;;13.40;99.90;;;;;;4955449;29;20027;-71
2023/05/11 02:12:25;;;;;;;41.58;20.25;;;13.40;99.90;;;;;;4951444;28;20076;-70
2023/05/11 02:14:52;;;;;;;37.70;19.60;;;13.40;99.90;;;;;;4954380;29;20102;-71
2023/05/11 02:17:21;;;;;;;37.83;20.15;;;13.40;99.90;;;;;;4951710;28;20035;-70
2023/05/11 02:19:47;;;;;;;34.47;19.55;;;13.40;99.90;;;;;;4947826;29;20074;-71
2023/05/11 02:22:14;;;;;;;36.75;19.65;;;13.40;99.90;;;;;;4953319;29;20062;-70
2023/05/11 02:24:40;;;;;;;34.50;19.75;;;13.40;99.90;;;;;;4955135;29;20031;-70
2023/05/11 02:27:06;;;;;;;35.22;19.25;;;13.40;99.90;;;;;;4953519;28;20054;-70
2023/05/11 02:29:31;;;;;;;34.05;19.58;;;13.40;99.90;;;;;;4954626;29;20571;-70
2023/05/11 02:32:08;;;;;;;34.67;19.08;;;13.40;99.90;;;;;;4947992;29;20095;-70
2023/05/11 02:34:42;;;;;;;31.88;17.63;;;13.40;99.90;;;;;;4951074;29;20364;-70
2023/05/11 02:37:19;;;;;;;37.40;19.77;;;13.40;99.90;;;;;;4955200;29;20027;-71
2023/05/11 02:39:50;;;;;;;34.05;19.27;;;13.40;99.90;;;;;;4946818;29;20023;-71
2023/05/11 02:42:21;;;;;;;34.33;18.48;;;13.40;99.90;;;;;;4950869;29;20439;-71
2023/05/11 02:45:21;;;;;;;35.90;18.92;;;13.40;99.90;;;;;;4953361;28;20024;-71
2023/05/11 02:47:51;;;;;;;41.72;20.45;;;13.40;99.90;;;;;;4919456;28;20388;-71
2023/05/11 02:50:19;;;;;;;41.58;20.42;;;13.30;99.90;;;;;;4944406;29;20435;-71
2023/05/11 02:52:47;;;;;;;38.22;20.15;;;13.30;99.90;;;;;;4955255;28;20043;-70
2023/05/11 02:55:15;;;;;;;39.95;20.48;;;13.30;99.90;;;;;;4952623;28;20027;-70
2023/05/11 02:57:45;;;;;;;42.28;20.40;;;13.40;99.90;;;;;;4954849;29;20075;-71
2023/05/11 03:00:11;;;;;;;43.45;21.65;;;13.30;99.90;;;;;;4943137;29;20126;-71
2023/05/11 03:02:37;;;;;;;41.28;22.08;;;13.30;99.90;;;;;;4943371;28;20027;-71
2023/05/11 03:05:03;;;;;;;42.90;20.90;;;13.30;99.90;;;;;;4944769;29;20034;-71
2023/05/11 03:07:30;;;;;;;41.80;20.23;;;13.30;99.90;;;;;;4950915;29;20483;-71
2023/05/11 03:09:55;;;;;;;45.22;22.45;;;13.30;99.90;;;;;;4944190;29;20043;-70
2023/05/11 03:12:22;;;;;;;39.42;20.55;;;13.30;99.90;;;;;;4950239;28;20382;-70
2023/05/11 03:14:48;;;;;;;42.40;20.45;;;13.30;99.90;;;;;;4950900;28;20023;-71
2023/05/11 03:17:15;;;;;;;43.95;21.52;;;13.30;99.90;;;;;;4953372;28;20687;-70
2023/05/11 03:19:42;;;;;;;42.97;21.80;;;13.30;99.90;;;;;;4944404;29;20023;-70
2023/05/11 03:22:09;;;;;;;39.63;20.25;;;13.30;99.90;;;;;;4944343;29;20031;-70
2023/05/11 03:24:36;;;;;;;42.25;20.88;;;13.30;99.90;;;;;;4945332;29;20027;-70
2023/05/11 03:27:03;;;;;;;41.72;20.55;;;13.30;99.90;;;;;;4945831;29;20380;-70
2023/05/11 03:29:30;;;;;;;44.47;21.60;;;13.30;99.90;;;;;;4944429;29;20111;-70
2023/05/11 03:31:56;;;;;;;41.78;20.42;;;13.30;99.90;;;;;;4951964;29;20023;-70
2023/05/11 03:34:21;;;;;;;41.45;20.10;;;13.30;99.90;;;;;;4950872;29;20050;-70
2023/05/11 03:36:48;;;;;;;43.35;21.20;;;13.30;99.90;;;;;;4946583;28;20043;-70
2023/05/11 03:39:16;;;;;;;45.58;21.33;;;13.30;99.90;;;;;;4952740;28;20546;-70
2023/05/11 03:41:43;;;;;;;41.58;20.05;;;13.30;99.90;;;;;;4954124;28;20023;-70
2023/05/11 03:44:11;;;;;;;40.40;20.67;;;13.30;99.90;;;;;;4952844;28;20028;-70
2023/05/11 03:46:39;;;;;;;42.40;20.80;;;13.30;99.90;;;;;;4953527;29;20026;-70
2023/05/11 03:49:06;;;;;;;43.67;21.15;;;13.30;99.90;;;;;;4942748;28;20030;-70
2023/05/11 03:51:33;;;;;;;45.85;21.25;;;13.30;99.90;;;;;;4948283;29;20046;-70
2023/05/11 03:53:59;;;;;;;44.33;21.20;;;13.30;99.90;;;;;;4953949;28;20031;-71
2023/05/11 03:56:25;;;;;;;47.15;20.73;;;13.30;99.90;;;;;;4948122;28;20463;-69
2023/05/11 03:58:52;;;;;;;48.75;21.65;;;13.30;99.90;;;;;;4953977;28;20529;-70
2023/05/11 04:01:18;;;;;;;45.72;21.77;;;13.30;99.90;;;;;;4954216;29;20038;-70
2023/05/11 04:03:51;;;;;;;47.30;21.10;;;13.30;99.90;;;;;;4954246;28;20027;-70
2023/05/11 04:06:18;;;;;;;44.95;21.40;;;13.30;99.90;;;;;;4949199;28;20032;-70
2023/05/11 04:08:44;;;;;;;47.63;22.27;;;13.30;99.90;;;;;;4949655;29;20027;-70
2023/05/11 04:11:09;;;;;;;43.33;21.42;;;13.30;99.90;;;;;;4943710;29;20038;-70
2023/05/11 04:13:35;;;;;;;47.58;22.23;;;13.30;99.90;;;;;;4953156;28;20027;-70
2023/05/11 04:16:01;;;;;;;46.22;22.42;;;13.20;99.90;;;;;;4953532;29;20031;-70
2023/05/11 04:18:26;;;;;;;45.22;21.90;;;13.20;99.90;;;;;;4953312;29;20479;-70
2023/05/11 04:20:52;;;;;;;52.63;23.10;;;13.20;99.90;;;;;;4946984;28;20055;-70
2023/05/11 04:23:18;;;;;;;42.67;20.50;;;13.20;99.90;;;;;;4953400;29;20031;-70
2023/05/11 04:25:43;;;;;;;48.05;22.55;;;13.20;99.90;;;;;;4953716;28;20051;-70
2023/05/11 04:28:09;;;;;;;48.28;22.92;;;13.20;99.90;;;;;;4944090;29;20027;-70
2023/05/11 04:30:35;;;;;;;49.30;22.90;;;13.20;99.90;;;;;;4942623;29;20055;-70
2023/05/11 04:33:00;;;;;;;45.58;21.90;;;13.30;99.90;;;;;;4942332;28;20060;-70
2023/05/11 04:35:26;;;;;;;48.85;23.42;;;13.30;99.90;;;;;;4953332;28;20642;-70
2023/05/11 04:37:51;;;;;;;43.75;21.95;;;13.20;99.90;;;;;;4951097;28;20031;-70
2023/05/11 04:40:17;;;;;;;46.30;23.02;;;13.20;99.90;;;;;;4953240;28;20098;-70
2023/05/11 04:42:43;;;;;;;47.50;21.92;;;13.30;99.90;;;;;;4949434;28;20083;-70
2023/05/11 04:45:09;;;;;;;45.70;22.52;;;13.30;99.90;;;;;;4952578;29;20038;-70
2023/05/11 04:47:34;;;;;;;46.50;22.17;;;13.30;99.90;;;;;;4953224;28;20019;-70
2023/05/11 04:50:00;;;;;;;53.85;24.38;;;13.30;99.90;;;;;;4945771;29;20032;-70
2023/05/11 04:52:25;;;;;;;48.80;23.20;;;13.30;99.90;;;;;;4942684;29;20035;-70
2023/05/11 04:54:51;;;;;;;49.45;22.50;;;13.30;99.90;;;;;;4951612;29;20276;-70
2023/05/11 04:57:17;;;;;;;47.40;22.08;;;13.30;99.90;;;;;;4950295;29;20023;-70
2023/05/11 04:59:43;;;;;;;48.30;22.15;;;13.30;99.90;;;;;;4943082;28;20051;-70
2023/05/11 05:02:09;;;;;;;49.88;22.50;;;13.30;99.90;;;;;;4940105;29;20044;-70
2023/05/11 05:04:34;;;;;;;52.05;24.23;;;13.30;99.90;;;;;;4944248;29;20034;-70
2023/05/11 05:07:00;;;;;;;49.60;23.70;;;13.40;99.90;;;;;;4949573;29;20027;-70
2023/05/11 05:09:26;;;;;;;51.22;23.95;;;13.40;99.90;;;;;;4953865;28;20027;-70
2023/05/11 05:11:51;;;;;;;43.00;22.15;;;13.40;99.90;;;;;;4952401;28;20390;-70
2023/05/11 05:14:17;;;;;;;45.92;23.23;;;13.40;99.90;;;;;;4952882;29;20042;-70
2023/05/11 05:16:42;;;;;;;45.45;22.42;;;13.40;99.90;;;;;;4952228;29;20033;-70
2023/05/11 05:19:11;;;;;;;44.67;22.83;;;13.50;99.90;;;;;;4950130;28;20027;-70
2023/05/11 05:21:37;;;;;;;46.13;23.90;;;13.50;99.90;;;;;;4943886;28;20039;-70
2023/05/11 05:24:05;;;;;;;44.15;22.25;;;13.50;99.90;;;;;;4950491;29;20027;-70
2023/05/11 05:26:30;;;;;;;51.35;23.38;;;13.60;99.90;;;;;;4946826;29;20026;-70
2023/05/11 05:28:56;;;;;;;48.90;23.80;;;13.60;99.90;;;;;;4949456;28;20027;-70
2023/05/11 05:31:22;;;;;;;43.40;21.70;;;13.60;99.90;;;;;;4944123;29;20035;-70
2023/05/11 05:33:48;;;;;;;47.90;22.98;;;13.60;99.90;;;;;;4952929;28;20018;-70
2023/05/11 05:36:13;;;;;;;43.55;20.40;;;13.60;99.90;;;;;;4953145;28;20375;-70
2023/05/11 05:38:39;;;;;;;38.00;19.85;;;13.70;99.90;;;;;;4951459;29;20031;-70
2023/05/11 05:41:05;;;;;;;39.50;20.05;;;13.60;99.90;;;;;;4941920;28;20098;-70
2023/05/11 05:43:35;;;;;;;42.83;21.15;;;13.70;99.90;;;;;;4952851;29;20371;-70
2023/05/11 05:46:00;;;;;;;42.33;20.35;;;13.70;99.90;;;;;;4948515;28;20063;-70
2023/05/11 05:48:26;;;;;;;43.13;20.90;;;13.70;99.90;;;;;;4947693;28;20027;-70
2023/05/11 05:50:52;;;;;;;39.45;20.63;;;13.70;99.90;;;;;;4946239;29;20027;-70
2023/05/11 05:53:17;;;;;;;42.63;21.83;;;13.80;99.90;;;;;;4951355;28;20122;-70
2023/05/11 05:55:43;;;;;;;40.28;21.02;;;13.80;99.90;;;;;;4952014;29;20023;-71
2023/05/11 05:58:08;;;;;;;41.50;21.15;;;13.80;99.90;;;;;;4952075;29;20023;-70
2023/05/11 06:00:35;;;;;;;35.58;19.92;;;13.90;99.90;;;;;;4949566;29;20031;-70
2023/05/11 06:03:00;;;;;;;42.85;21.77;;;13.90;99.90;;;;;;4944476;28;20471;-70
2023/05/11 06:05:26;;;;;;;43.00;21.83;;;14.00;99.90;;;;;;4955748;28;20031;-70
2023/05/11 06:07:52;;;;;;;42.22;21.52;;;14.00;99.90;;;;;;4954286;28;20366;-70
2023/05/11 06:10:17;;;;;;;36.53;20.02;;;14.10;99.90;;;;;;4953623;29;20102;-70
2023/05/11 06:12:43;;;;;;;42.22;20.95;;;14.20;99.90;;;;;;4953188;29;20024;-70
2023/05/11 06:15:11;;;;;;;44.05;21.52;;;14.20;99.90;;;;;;4949907;29;20106;-70
2023/05/11 06:17:37;;;;;;;43.40;22.45;;;14.20;99.90;;;;;;4954547;28;20023;-70
2023/05/11 06:20:02;;;;;;;45.58;22.15;;;14.30;99.90;;;;;;4951813;28;20079;-70
2023/05/11 06:22:28;;;;;;;48.33;23.40;;;14.30;99.90;;;;;;4953807;29;20030;-70
2023/05/11 06:24:54;;;;;;;47.95;22.40;;;14.40;99.90;;;;;;4945866;29;20471;-70
2023/05/11 06:27:19;;;;;;;48.20;22.55;;;14.40;99.90;;;;;;4952034;28;20115;-70
2023/05/11 06:29:45;;;;;;;47.17;22.92;;;14.50;99.90;;;;;;4955573;29;20019;-70
2023/05/11 06:32:10;;;;;;;49.53;23.20;;;14.50;99.90;;;;;;4954495;28;20374;-70
2023/05/11 06:34:38;;;;;;;46.42;23.27;;;14.50;99.90;;;;;;4955165;29;20019;-70
2023/05/11 06:37:03;;;;;;;48.45;23.13;;;14.50;99.90;;;;;;4955592;28;20371;-70
2023/05/11 06:39:29;;;;;;;49.38;23.35;;;14.50;99.90;;;;;;4955174;28;20020;-70
2023/05/11 06:41:55;;;;;;;51.13;23.75;;;14.50;99.90;;;;;;4955341;28;20143;-70
2023/05/11 06:44:20;;;;;;;52.08;24.17;;;14.40;99.90;;;;;;4953724;29;20058;-70
2023/05/11 06:46:46;;;;;;;48.33;24.08;;;14.50;99.90;;;;;;4955403;28;20020;-70
2023/05/11 06:49:12;;;;;;;46.55;23.48;;;14.40;99.90;;;;;;4951767;29;20035;-71
2023/05/11 06:51:38;;;;;;;46.42;23.45;;;14.50;99.90;;;;;;4955554;29;20486;-70
2023/05/11 06:54:04;;;;;;;49.60;23.45;;;14.40;99.90;;;;;;4955172;29;20478;-70
2023/05/11 06:56:30;;;;;;;48.83;22.65;;;14.50;99.90;;;;;;4952819;29;20015;-70
2023/05/11 06:58:56;;;;;;;53.53;25.02;;;14.50;99.90;;;;;;4951663;28;20043;-70
2023/05/11 07:01:22;;;;;;;54.67;24.75;;;14.50;99.90;;;;;;4949858;29;20061;-70
2023/05/11 07:03:48;;;;;;;43.78;21.92;;;14.50;99.90;;;;;;4942509;29;20483;-70
2023/05/11 07:06:14;;;;;;;45.50;21.75;;;14.50;99.90;;;;;;4949595;29;20019;-70
2023/05/11 07:08:39;;;;;;;31.83;14.45;;;14.60;99.90;;;;;;4951789;29;20024;-70
2023/05/11 07:11:06;;;;;;;39.33;17.50;;;14.50;99.90;;;;;;4948304;29;20028;-70
2023/05/11 07:13:32;;;;;;;42.58;20.15;;;14.50;99.90;;;;;;4949685;28;20031;-71
2023/05/11 07:15:57;;;;;;;34.20;16.65;;;14.60;99.90;;;;;;4946159;28;20074;-70
2023/05/11 07:18:23;;;;;;;33.85;14.50;;;14.50;99.90;;;;;;4954308;29;20098;-71
2023/05/11 07:20:49;;;;;;;31.23;16.23;;;14.60;99.90;;;;;;4952345;28;20020;-71
2023/05/11 07:23:15;;;;;;;32.83;16.13;;;14.60;99.90;;;;;;4954912;28;20035;-71
2023/05/11 07:25:41;;;;;;;31.60;14.18;;;14.60;99.90;;;;;;4953449;29;20028;-71
2023/05/11 07:28:07;;;;;;;32.25;13.32;;;14.70;99.90;;;;;;4950215;28;20063;-71
2023/05/11 07:30:33;;;;;;;35.13;15.75;;;14.70;99.90;;;;;;4942854;29;20051;-71
2023/05/11 07:32:58;;;;;;;31.75;15.13;;;14.70;99.90;;;;;;4954189;29;20028;-71
2023/05/11 07:35:24;;;;;;;32.08;15.57;;;14.80;99.90;;;;;;4954020;28;20386;-75
2023/05/11 07:37:50;;;;;;;39.22;17.58;;;14.80;99.90;;;;;;4953924;29;20043;-71
2023/05/11 07:40:15;;;;;;;36.03;17.70;;;14.90;99.90;;;;;;4946220;29;20031;-71
2023/05/11 07:42:41;;;;;;;37.20;18.38;;;14.90;99.90;;;;;;4943957;29;20054;-70
2023/05/11 07:45:07;;;;;;;36.10;18.85;;;15.00;99.90;;;;;;4935411;28;20031;-71
2023/05/11 07:47:33;;;;;;;48.63;22.10;;;15.00;99.90;;;;;;4949221;29;20367;-71
2023/05/11 07:49:58;;;;;;;45.67;22.55;;;15.10;99.90;;;;;;4951092;29;20024;-71
2023/05/11 07:52:24;;;;;;;59.97;26.65;;;15.20;99.90;;;;;;4954229;28;20031;-71
2023/05/11 07:54:49;;;;;;;57.22;26.02;;;15.20;99.90;;;;;;4951685;29;20052;-71
2023/05/11 07:57:15;;;;;;;55.15;26.10;;;15.30;99.90;;;;;;4950956;29;20055;-71
2023/05/11 07:59:41;;;;;;;54.92;26.45;;;15.30;99.90;;;;;;4950530;29;20069;-71
2023/05/11 08:02:08;;;;;;;56.25;27.15;;;15.30;99.90;;;;;;4952810;29;20031;-71
2023/05/11 08:04:35;;;;;;;56.22;27.35;;;15.40;99.90;;;;;;4953975;29;20110;-71
2023/05/11 08:07:01;;;;;;;50.67;25.73;;;15.40;99.90;;;;;;4946948;29;20521;-71
2023/05/11 08:09:28;;;;;;;52.60;27.40;;;15.40;99.90;;;;;;4950328;29;20034;-71
2023/05/11 08:11:55;;;;;;;49.45;25.17;;;15.50;99.90;;;;;;4948403;29;20039;-71
2023/05/11 08:14:22;;;;;;;50.80;24.52;;;15.60;99.90;;;;;;4944381;28;20395;-71
2023/05/11 08:16:48;;;;;;;49.85;24.25;;;15.80;99.90;;;;;;4947146;28;20023;-71
2023/05/11 08:19:14;;;;;;;36.72;19.38;;;15.90;99.90;;;;;;4942392;28;20015;-71
2023/05/11 08:21:39;;;;;;;32.17;17.92;;;16.10;99.90;;;;;;4953547;28;20027;-71
2023/05/11 08:24:05;;;;;;;29.00;16.65;;;16.30;99.90;;;;;;4940267;28;20061;-71
2023/05/11 08:26:32;;;;;;;27.17;14.98;;;16.30;99.90;;;;;;4953273;28;20042;-71
2023/05/11 08:28:57;;;;;;;27.25;16.23;;;16.50;99.90;;;;;;4953310;29;20023;-71
2023/05/11 08:31:23;;;;;;;27.00;16.23;;;16.50;99.90;;;;;;4950285;29;20510;-71
2023/05/11 08:33:48;;;;;;;27.13;15.85;;;16.70;99.90;;;;;;4953487;28;20023;-71
2023/05/11 08:36:14;;;;;;;30.40;16.40;;;16.80;99.90;;;;;;4953149;28;20390;-71
2023/05/11 08:38:40;;;;;;;29.65;16.83;;;16.90;99.90;;;;;;4952969;28;20031;-71
2023/05/11 08:41:06;;;;;;;29.42;17.02;;;17.10;99.90;;;;;;4953140;28;20019;-71
2023/05/11 08:43:35;;;;;;;30.38;16.65;;;17.20;99.90;;;;;;4953446;29;20039;-71
2023/05/11 08:46:03;;;;;;;31.00;18.27;;;17.50;99.90;;;;;;4951192;29;20035;-71
2023/05/11 08:48:30;;;;;;;27.80;18.35;;;17.80;99.90;;;;;;4950194;29;20031;-71
2023/05/11 08:50:56;;;;;;;30.67;18.42;;;17.90;99.90;;;;;;4939256;29;20047;-71
2023/05/11 08:53:22;;;;;;;29.05;16.38;;;17.80;99.90;;;;;;4949028;29;20718;-71
2023/05/11 08:55:50;;;;;;;22.30;14.20;;;17.70;99.90;;;;;;4953624;28;20475;-71
2023/05/11 08:58:21;;;;;;;28.27;16.08;;;17.60;99.90;;;;;;4952057;28;20051;-71
2023/05/11 09:00:50;;;;;;;24.63;15.15;;;17.40;99.90;;;;;;4946414;29;20028;-71
2023/05/11 09:03:18;;;;;;;27.77;16.02;;;17.30;99.90;;;;;;4948268;28;20042;-71
2023/05/11 09:05:45;;;;;;;25.70;15.13;;;17.20;99.90;;;;;;4953353;29;20024;-71
2023/05/11 09:08:13;;;;;;;27.13;16.00;;;17.30;99.90;;;;;;4947261;29;20028;-71
2023/05/11 09:10:38;;;;;;;28.40;16.83;;;17.40;99.90;;;;;;4952541;29;20020;-71
2023/05/11 09:13:05;;;;;;;28.55;16.08;;;17.60;99.90;;;;;;4949133;28;20363;-71
2023/05/11 09:15:31;;;;;;;25.67;14.90;;;17.90;99.90;;;;;;4944590;28;20093;-71
2023/05/11 09:17:56;;;;;;;21.45;12.35;;;18.20;99.90;;;;;;4946231;28;20458;-71
2023/05/11 09:20:30;;;;;;;18.63;11.50;;;18.40;99.90;;;;;;4947980;29;20046;-71
2023/05/11 09:22:57;;;;;;;20.83;12.35;;;18.40;99.90;;;;;;4952887;28;20065;-71
2023/05/11 09:25:24;;;;;;;29.52;16.77;;;18.40;99.90;;;;;;4951287;28;20023;-71
2023/05/11 09:27:50;;;;;;;28.77;17.48;;;18.40;99.90;;;;;;4952897;29;20162;-71
2023/05/11 09:30:22;;;;;;;24.25;15.20;;;18.30;99.90;;;;;;4951030;28;20046;-71
2023/05/11 09:33:20;;;;;;;25.05;14.48;;;18.20;99.90;;;;;;4950086;29;20056;-71
2023/05/11 09:35:46;;;;;;;18.83;11.98;;;18.10;99.90;;;;;;4938464;29;20043;-71
2023/05/11 09:38:13;;;;;;;17.27;10.77;;;18.00;99.90;;;;;;4943992;28;20421;-71
2023/05/11 09:40:53;;;;;;;15.07;9.90;;;17.90;99.90;;;;;;4944297;28;20467;-71
2023/05/11 09:43:25;;;;;;;15.50;9.45;;;17.90;99.90;;;;;;4945338;29;20085;-71
2023/05/11 09:45:53;;;;;;;16.23;10.15;;;17.80;99.90;;;;;;4953481;28;20028;-71
2023/05/11 09:48:19;;;;;;;16.10;11.10;;;17.60;99.90;;;;;;4953799;29;20483;-71
2023/05/11 09:50:46;;;;;;;14.85;10.52;;;17.50;99.90;;;;;;4956344;29;20050;-71
2023/05/11 09:53:12;;;;;;;19.80;12.45;;;17.40;99.90;;;;;;4954769;28;20507;-71
2023/05/11 09:55:37;;;;;;;19.65;12.55;;;17.40;99.90;;;;;;4956220;29;20034;-71
2023/05/11 09:58:03;;;;;;;18.63;12.50;;;17.30;99.90;;;;;;4955933;29;20055;-71
2023/05/11 10:00:29;;;;;;;19.80;12.80;;;17.20;99.90;;;;;;4952378;28;20023;-71
2023/05/11 10:03:13;;;;;;;21.20;14.25;;;17.20;99.90;;;;;;4952873;29;20480;-71
2023/05/11 10:05:40;;;;;;;24.48;14.82;;;17.10;99.90;;;;;;4947992;29;20038;-71
2023/05/11 10:08:05;;;;;;;29.67;17.73;;;17.00;99.90;;;;;;4955595;29;20494;-71
2023/05/11 10:10:33;;;;;;;28.27;18.48;;;17.00;99.90;;;;;;4948474;28;20024;-71
2023/05/11 10:13:00;;;;;;;33.50;19.63;;;16.90;99.90;;;;;;4950430;29;20035;-71
2023/05/11 10:15:27;;;;;;;34.20;19.52;;;16.80;99.90;;;;;;4943094;29;20028;-71
2023/05/11 10:17:59;;;;;;;32.03;18.75;;;16.70;99.90;;;;;;4939776;29;20030;-71
2023/05/11 10:20:25;;;;;;;29.55;17.65;;;16.60;99.90;;;;;;4951625;29;20022;-71
2023/05/11 10:22:52;;;;;;;29.02;17.20;;;16.60;99.90;;;;;;4949408;28;20392;-71
2023/05/11 10:25:20;;;;;;;32.28;18.05;;;16.50;99.90;;;;;;4936934;29;20055;-71
2023/05/11 10:27:47;;;;;;;34.42;18.35;;;16.50;99.90;;;;;;4943401;29;20028;-71
2023/05/11 10:30:13;;;;;;;31.10;17.27;;;16.40;99.90;;;;;;4955191;29;20030;-71
2023/05/11 10:32:38;;;;;;;29.83;18.17;;;16.30;99.90;;;;;;4953839;29;20378;-71
2023/05/11 10:35:05;;;;;;;32.47;18.80;;;16.20;99.90;;;;;;4950713;29;20511;-71
2023/05/11 10:37:32;;;;;;;32.00;18.90;;;16.20;99.90;;;;;;4952149;29;20042;-71
2023/05/11 10:39:58;;;;;;;36.35;20.10;;;16.20;99.90;;;;;;4945163;29;20024;-71
2023/05/11 10:42:41;;;;;;;37.30;19.63;;;16.10;99.90;;;;;;4943778;28;20027;-71
2023/05/11 10:45:27;;;;;;;33.70;19.23;;;16.10;99.90;;;;;;4944749;29;20086;-71
2023/05/11 10:48:18;;;;;;;32.15;18.45;;;16.10;99.90;;;;;;4955209;28;20031;-71
2023/05/11 10:51:21;;;;;;;30.65;18.23;;;16.00;99.90;;;;;;4953732;29;20511;-71
2023/05/11 10:54:20;;;;;;;31.23;17.10;;;15.90;99.90;;;;;;4955307;29;20039;-71
2023/05/11 10:57:01;;;;;;;24.92;16.10;;;15.90;99.90;;;;;;4955103;29;20035;-71
2023/05/11 10:59:29;;;;;;;30.35;16.50;;;15.80;99.90;;;;;;4954355;28;20051;-71
2023/05/11 11:01:57;;;;;;;31.67;16.75;;;15.80;99.90;;;;;;4948377;29;20083;-71
2023/05/11 11:04:24;;;;;;;28.08;17.05;;;15.70;99.90;;;;;;4954875;29;20085;-71
2023/05/11 11:07:04;;;;;;;26.02;15.95;;;15.70;99.90;;;;;;4948504;28;20523;-71
2023/05/11 11:09:49;;;;;;;30.83;15.57;;;15.60;99.90;;;;;;4943724;29;20016;-71
2023/05/11 11:12:14;;;;;;;24.17;14.35;;;15.60;99.90;;;;;;4953136;29;20403;-72
2023/05/11 11:15:00;;;;;;;19.38;12.57;;;15.50;99.90;;;;;;4949944;29;20035;-71
2023/05/11 11:17:30;;;;;;;15.73;8.70;;;15.50;99.90;;;;;;4944846;29;20031;-71
2023/05/11 11:19:57;;;;;;;15.57;9.15;;;15.40;99.90;;;;;;4954689;28;20471;-72
2023/05/11 11:22:51;;;;;;;20.98;10.50;;;15.40;99.90;;;;;;4943832;28;20034;-71
2023/05/11 11:25:51;;;;;;;17.65;9.90;;;15.30;99.90;;;;;;4930567;29;20036;-71
2023/05/11 11:28:17;;;;;;;18.83;11.45;;;15.30;99.90;;;;;;4935773;29;20023;-71
2023/05/11 11:30:42;;;;;;;23.02;12.82;;;15.40;99.90;;;;;;4950056;29;20024;-71
2023/05/11 11:33:08;;;;;;;23.85;13.95;;;15.40;99.90;;;;;;4954394;29;20097;-72
2023/05/11 11:35:40;;;;;;;23.77;14.05;;;15.50;99.90;;;;;;4948077;29;20024;-71
2023/05/11 11:38:08;;;;;;;24.10;13.02;;;15.50;99.90;;;;;;4941907;29;20056;-71
2023/05/11 11:40:39;;;;;;;16.70;11.52;;;15.50;99.90;;;;;;4948278;29;20070;-74
2023/05/11 11:43:18;;;;;;;19.65;12.32;;;15.50;99.90;;;;;;4940748;29;20031;-72
2023/05/11 11:45:52;;;;;;;23.48;13.15;;;15.50;99.90;;;;;;4944811;28;20027;-71
2023/05/11 11:48:34;;;;;;;21.77;12.43;;;15.50;99.90;;;;;;4963676;28;20024;-72
2023/05/11 11:51:09;;;;;;;19.38;12.45;;;15.40;99.90;;;;;;4946648;29;20077;-72
2023/05/11 11:53:42;;;;;;;17.23;11.63;;;15.30;99.90;;;;;;4950331;29;20019;-72
2023/05/11 11:56:28;;;;;;;20.35;12.32;;;15.20;99.90;;;;;;4953174;29;20082;-71
2023/05/11 11:59:02;;;;;;;24.98;13.38;;;15.10;99.90;;;;;;4938588;29;20472;-73
2023/05/11 12:01:34;;;;;;;22.77;12.40;;;15.00;99.90;;;;;;4949400;28;20066;-72
2023/05/11 12:04:03;;;;;;;22.38;13.73;;;14.90;99.90;;;;;;4938185;29;20068;-72
2023/05/11 12:06:35;;;;;;;22.70;14.13;;;14.90;99.90;;;;;;4951846;29;20020;-72
2023/05/11 12:09:03;;;;;;;23.38;14.38;;;14.80;99.90;;;;;;4947735;28;20095;-72
2023/05/11 12:11:29;;;;;;;24.88;14.75;;;14.80;99.90;;;;;;4951291;29;20023;-72
2023/05/11 12:13:56;;;;;;;24.95;14.88;;;14.90;99.90;;;;;;4941248;29;20487;-72
2023/05/11 12:16:22;;;;;;;28.52;15.48;;;15.00;99.90;;;;;;4953868;28;20034;-72
2023/05/11 12:18:56;;;;;;;30.52;16.42;;;15.10;99.90;;;;;;4953680;28;20086;-72
2023/05/11 12:21:24;;;;;;;29.02;16.75;;;15.20;99.90;;;;;;4951103;29;20382;-72
2023/05/11 12:23:53;;;;;;;27.08;15.30;;;15.30;99.90;;;;;;4945022;29;20020;-72
2023/05/11 12:26:23;;;;;;;23.90;14.07;;;15.30;99.90;;;;;;4944971;28;20533;-72
2023/05/11 12:28:50;;;;;;;22.05;13.18;;;15.30;99.90;;;;;;4947974;29;20027;-72
2023/05/11 12:31:18;;;;;;;22.48;13.80;;;15.30;99.90;;;;;;4953223;28;20061;-72
2023/05/11 12:33:48;;;;;;;22.15;13.05;;;15.40;99.90;;;;;;4949440;28;20019;-72